Time;durP1;ratioP1;P1;durP2;ratioP2;P2;SDS_P1;SDS_P2;PMS_P1;PMS_P2;Temp;Humidity;BMP_temperature;BMP_pressure;BME280_temperature;BME280_humidity;BME280_pressure;Samples;Min_cycle;Max_cycle;Signal;HPM_P1;HPM_P2
2022/03/15 00:00:09;;;;;;;5.97;3.80;;;;;;;;;;5094244;28;20031;-67
2022/03/15 00:02:34;;;;;;;7.30;4.47;;;;;;;;;;5107984;28;20114;-67
2022/03/15 00:04:59;;;;;;;6.60;4.03;;;;;;;;;;5111534;28;20502;-66
2022/03/15 00:07:25;;;;;;;7.77;4.37;;;;;;;;;;5099217;28;20032;-67
2022/03/15 00:09:50;;;;;;;7.77;4.80;;;;;;;;;;5115219;28;20032;-67
2022/03/15 00:12:16;;;;;;;7.37;4.70;;;;;;;;;;5110159;28;20024;-66
2022/03/15 00:14:43;;;;;;;6.37;3.50;;;;;;;;;;5106906;28;20102;-66
2022/03/15 00:17:09;;;;;;;7.33;4.00;;;;;;;;;;5096137;28;20063;-65
2022/03/15 00:19:34;;;;;;;8.20;4.17;;;;;;;;;;5110306;28;20035;-66
2022/03/15 00:21:59;;;;;;;7.33;3.87;;;;;;;;;;5103577;28;20399;-68
2022/03/15 00:24:25;;;;;;;6.63;3.73;;;;;;;;;;5103604;28;20396;-66
2022/03/15 00:26:50;;;;;;;6.27;4.53;;;;;;;;;;5104113;28;20016;-66
2022/03/15 00:29:17;;;;;;;6.00;4.40;;;;;;;;;;5113188;27;20055;-66
2022/03/15 00:31:44;;;;;;;9.93;5.67;;;;;;;;;;5101922;27;20047;-67
2022/03/15 00:34:09;;;;;;;7.60;5.27;;;;;;;;;;5112287;28;20055;-67
2022/03/15 00:36:35;;;;;;;8.00;5.57;;;;;;;;;;5100362;27;20066;-68
2022/03/15 00:39:00;;;;;;;7.90;5.13;;;;;;;;;;5108966;27;20054;-67
2022/03/15 00:41:25;;;;;;;10.63;6.00;;;;;;;;;;5100733;28;20046;-66
2022/03/15 00:43:51;;;;;;;8.63;5.77;;;;;;;;;;5105397;27;20026;-66
2022/03/15 00:46:16;;;;;;;8.93;5.90;;;;;;;;;;5104793;27;20020;-67
2022/03/15 00:48:41;;;;;;;7.90;5.00;;;;;;;;;;5099581;28;20383;-67
2022/03/15 00:51:06;;;;;;;8.80;5.63;;;;;;;;;;5107445;27;20020;-67
2022/03/15 00:53:31;;;;;;;5.77;4.77;;;;;;;;;;5111705;28;20020;-67
2022/03/15 00:55:56;;;;;;;7.73;5.43;;;;;;;;;;5108313;28;20490;-67
2022/03/15 00:58:22;;;;;;;10.37;5.53;;;;;;;;;;5107050;28;20028;-67
2022/03/15 01:00:48;;;;;;;10.27;5.83;;;;;;;;;;5111133;28;20255;-66
2022/03/15 01:03:13;;;;;;;13.23;6.60;;;;;;;;;;5109990;28;20036;-67
2022/03/15 01:05:38;;;;;;;14.13;7.37;;;;;;;;;;5102837;28;20032;-66
2022/03/15 01:08:04;;;;;;;8.13;5.97;;;;;;;;;;5104801;28;20024;-67
2022/03/15 01:10:29;;;;;;;9.40;5.83;;;;;;;;;;5113690;28;20073;-65
2022/03/15 01:12:54;;;;;;;8.43;5.70;;;;;;;;;;5104165;28;20047;-67
2022/03/15 01:15:21;;;;;;;9.77;6.00;;;;;;;;;;5107515;28;20138;-67
2022/03/15 01:17:46;;;;;;;12.80;6.30;;;;;;;;;;5112954;28;20089;-67
2022/03/15 01:20:12;;;;;;;10.03;6.00;;;;;;;;;;5099160;28;20024;-67
2022/03/15 01:22:37;;;;;;;10.83;6.50;;;;;;;;;;5106549;28;20072;-68
2022/03/15 01:25:02;;;;;;;10.80;6.33;;;;;;;;;;5106495;28;20448;-67
2022/03/15 01:27:27;;;;;;;8.67;6.00;;;;;;;;;;5112062;28;20034;-67
2022/03/15 01:29:53;;;;;;;8.87;6.00;;;;;;;;;;5110928;28;20494;-67
2022/03/15 01:32:20;;;;;;;10.77;6.80;;;;;;;;;;5092764;28;20073;-67
2022/03/15 01:34:45;;;;;;;11.03;5.87;;;;;;;;;;5104413;28;20024;-66
2022/03/15 01:37:10;;;;;;;6.80;4.97;;;;;;;;;;5097521;28;20019;-67
2022/03/15 01:39:37;;;;;;;9.30;5.23;;;;;;;;;;5107398;28;20031;-67
2022/03/15 01:42:02;;;;;;;11.67;6.33;;;;;;;;;;5112895;28;20079;-67
2022/03/15 01:44:29;;;;;;;7.40;5.00;;;;;;;;;;5099057;28;20364;-67
2022/03/15 01:46:54;;;;;;;7.87;5.60;;;;;;;;;;5095911;28;20393;-66
2022/03/15 01:49:20;;;;;;;7.50;5.60;;;;;;;;;;5111330;28;20494;-67
2022/03/15 01:51:46;;;;;;;8.47;5.70;;;;;;;;;;5109762;28;20015;-66
2022/03/15 01:54:12;;;;;;;8.00;5.07;;;;;;;;;;5104170;28;20503;-66
2022/03/15 01:56:40;;;;;;;8.33;5.53;;;;;;;;;;5067579;28;1075748;-67
2022/03/15 01:59:06;;;;;;;9.87;5.23;;;;;;;;;;5110702;27;20151;-67
2022/03/15 02:01:31;;;;;;;11.17;6.57;;;;;;;;;;5112753;27;20028;-67
2022/03/15 02:03:57;;;;;;;9.60;5.73;;;;;;;;;;5112996;28;20024;-66
2022/03/15 02:06:22;;;;;;;9.93;5.80;;;;;;;;;;5110763;27;20100;-67
2022/03/15 02:08:47;;;;;;;7.10;5.07;;;;;;;;;;5102992;28;20042;-67
2022/03/15 02:11:12;;;;;;;8.30;5.10;;;;;;;;;;5103126;28;20024;-67
2022/03/15 02:13:37;;;;;;;8.47;4.87;;;;;;;;;;5108973;28;20024;-67
2022/03/15 02:16:05;;;;;;;7.40;5.00;;;;;;;;;;5106639;27;20081;-67
2022/03/15 02:18:31;;;;;;;8.53;5.60;;;;;;;;;;5111319;28;20098;-67
2022/03/15 02:20:56;;;;;;;7.60;4.77;;;;;;;;;;5109861;28;20059;-67
2022/03/15 02:23:21;;;;;;;8.40;5.23;;;;;;;;;;5113347;28;20082;-66
2022/03/15 02:25:47;;;;;;;7.40;4.80;;;;;;;;;;5103689;27;20364;-67
2022/03/15 02:28:13;;;;;;;8.33;4.47;;;;;;;;;;5098592;28;20117;-67
2022/03/15 02:30:38;;;;;;;9.40;5.40;;;;;;;;;;5109151;28;20387;-66
2022/03/15 02:33:03;;;;;;;5.97;4.27;;;;;;;;;;5118619;27;20015;-67
2022/03/15 02:35:28;;;;;;;6.50;4.30;;;;;;;;;;5110212;27;20031;-66
2022/03/15 02:37:53;;;;;;;7.57;4.60;;;;;;;;;;5096556;28;20032;-66
2022/03/15 02:40:19;;;;;;;5.87;4.20;;;;;;;;;;5094398;28;20047;-66
2022/03/15 02:42:44;;;;;;;7.60;4.80;;;;;;;;;;5104385;28;20036;-67
2022/03/15 02:45:10;;;;;;;8.40;5.33;;;;;;;;;;5096150;28;20069;-66
2022/03/15 02:47:36;;;;;;;5.83;4.17;;;;;;;;;;5100945;28;20047;-65
2022/03/15 02:50:01;;;;;;;6.47;4.03;;;;;;;;;;5095572;27;20024;-67
2022/03/15 02:52:28;;;;;;;6.03;3.70;;;;;;;;;;5110191;28;20031;-66
2022/03/15 02:54:53;;;;;;;5.50;4.00;;;;;;;;;;5108384;28;20026;-67
2022/03/15 02:57:19;;;;;;;8.40;4.47;;;;;;;;;;5088133;28;20056;-66
2022/03/15 02:59:44;;;;;;;6.77;3.97;;;;;;;;;;5101274;28;20035;-67
2022/03/15 03:02:09;;;;;;;5.43;3.90;;;;;;;;;;5109165;28;20148;-66
2022/03/15 03:04:34;;;;;;;8.67;3.97;;;;;;;;;;5106745;28;21387;-67
2022/03/15 03:07:02;;;;;;;6.60;3.53;;;;;;;;;;5092645;28;20035;-67
2022/03/15 03:09:28;;;;;;;5.50;4.10;;;;;;;;;;5107208;27;20479;-67
2022/03/15 03:11:54;;;;;;;6.13;4.23;;;;;;;;;;5110966;28;20020;-67
2022/03/15 03:14:21;;;;;;;7.13;4.07;;;;;;;;;;5103947;28;20020;-66
2022/03/15 03:16:46;;;;;;;6.83;4.07;;;;;;;;;;5122558;27;20027;-65
2022/03/15 03:19:11;;;;;;;6.87;4.03;;;;;;;;;;5118325;27;20031;-67
2022/03/15 03:21:37;;;;;;;7.80;3.70;;;;;;;;;;5102893;28;20055;-66
2022/03/15 03:24:04;;;;;;;6.03;3.80;;;;;;;;;;5110450;28;20039;-66
2022/03/15 03:26:30;;;;;;;7.07;3.43;;;;;;;;;;5105764;28;20027;-66
2022/03/15 03:28:55;;;;;;;6.00;3.17;;;;;;;;;;5101690;28;20020;-64
2022/03/15 03:31:20;;;;;;;7.43;3.87;;;;;;;;;;5103456;28;20035;-66
2022/03/15 03:33:45;;;;;;;5.63;3.70;;;;;;;;;;5107398;28;20050;-66
2022/03/15 03:36:11;;;;;;;5.33;2.97;;;;;;;;;;5097573;28;20023;-67
2022/03/15 03:38:36;;;;;;;5.17;3.30;;;;;;;;;;5107055;28;20395;-66
2022/03/15 03:41:03;;;;;;;6.83;3.60;;;;;;;;;;5092342;28;20044;-67
2022/03/15 03:43:28;;;;;;;4.77;3.07;;;;;;;;;;5098016;28;20028;-65
2022/03/15 03:45:54;;;;;;;5.30;3.23;;;;;;;;;;5110001;28;20502;-66
2022/03/15 03:48:19;;;;;;;5.67;3.23;;;;;;;;;;5091828;28;20036;-66
2022/03/15 03:50:44;;;;;;;6.17;3.47;;;;;;;;;;5110216;28;20038;-67
2022/03/15 03:53:09;;;;;;;5.27;3.53;;;;;;;;;;5108074;28;20032;-66
2022/03/15 03:55:36;;;;;;;5.87;3.70;;;;;;;;;;5105352;28;20480;-67
2022/03/15 03:58:01;;;;;;;6.20;3.37;;;;;;;;;;5104748;28;20024;-66
2022/03/15 04:00:27;;;;;;;5.80;3.20;;;;;;;;;;5104940;28;20519;-66
2022/03/15 04:02:53;;;;;;;3.97;3.13;;;;;;;;;;5109390;28;20081;-66
2022/03/15 04:05:20;;;;;;;4.53;3.53;;;;;;;;;;5106609;28;20471;-65
2022/03/15 04:07:46;;;;;;;4.77;3.50;;;;;;;;;;5112542;27;20032;-64
2022/03/15 04:10:12;;;;;;;4.33;3.03;;;;;;;;;;5109396;28;20162;-67
2022/03/15 04:12:38;;;;;;;5.43;3.93;;;;;;;;;;5112242;28;20046;-66
2022/03/15 04:15:04;;;;;;;6.03;3.63;;;;;;;;;;5107106;28;20035;-67
2022/03/15 04:17:29;;;;;;;6.97;3.60;;;;;;;;;;5111610;28;20024;-67
2022/03/15 04:19:54;;;;;;;6.57;3.33;;;;;;;;;;5109327;28;20019;-67
2022/03/15 04:22:20;;;;;;;6.83;3.77;;;;;;;;;;5110558;28;20536;-67
2022/03/15 04:24:45;;;;;;;4.57;3.40;;;;;;;;;;5105923;28;20424;-67
2022/03/15 04:27:10;;;;;;;5.77;3.60;;;;;;;;;;5103215;28;20539;-67
2022/03/15 04:29:35;;;;;;;6.53;4.30;;;;;;;;;;5107196;28;20034;-67
2022/03/15 04:32:01;;;;;;;7.00;3.37;;;;;;;;;;5110549;28;20480;-66
2022/03/15 04:34:26;;;;;;;5.27;3.53;;;;;;;;;;5108637;28;20093;-66
2022/03/15 04:36:51;;;;;;;4.23;3.40;;;;;;;;;;5098565;28;20035;-67
2022/03/15 04:39:17;;;;;;;5.33;3.43;;;;;;;;;;5109531;28;20065;-66
2022/03/15 04:41:45;;;;;;;4.83;3.57;;;;;;;;;;5094953;28;20099;-66
2022/03/15 04:44:10;;;;;;;5.00;3.40;;;;;;;;;;5098451;28;20023;-65
2022/03/15 04:46:35;;;;;;;5.03;3.77;;;;;;;;;;5096248;28;20038;-66
2022/03/15 04:49:00;;;;;;;4.73;2.90;;;;;;;;;;5103850;28;20024;-66
2022/03/15 04:51:25;;;;;;;4.43;3.40;;;;;;;;;;5106354;28;20035;-65
2022/03/15 04:53:54;;;;;;;5.63;3.17;;;;;;;;;;5111756;27;20531;-67
2022/03/15 04:56:19;;;;;;;3.30;2.77;;;;;;;;;;5104142;27;20576;-66
2022/03/15 04:58:45;;;;;;;4.23;2.87;;;;;;;;;;5109250;28;20118;-66
2022/03/15 05:01:10;;;;;;;5.37;3.17;;;;;;;;;;5100661;28;20843;-66
2022/03/15 05:03:36;;;;;;;4.17;3.10;;;;;;;;;;5111998;28;20028;-66
2022/03/15 05:06:01;;;;;;;3.53;2.67;;;;;;;;;;5105938;28;20023;-68
2022/03/15 05:08:27;;;;;;;4.37;2.93;;;;;;;;;;5113307;27;20074;-66
2022/03/15 05:11:28;;;;;;;5.23;2.93;;;;;;;;;;5099342;28;20545;-67
2022/03/15 05:13:45;;;;;;;4.77;3.07;;;;;;;;;;5109936;28;20074;-66
2022/03/15 05:16:11;;;;;;;5.47;3.53;;;;;;;;;;5104054;28;20123;-67
2022/03/15 05:18:37;;;;;;;3.23;2.27;;;;;;;;;;5109632;27;20091;-67
2022/03/15 05:21:05;;;;;;;4.07;2.73;;;;;;;;;;5108972;27;20123;-67
2022/03/15 05:23:30;;;;;;;4.50;3.00;;;;;;;;;;5116005;27;20038;-68
2022/03/15 05:25:55;;;;;;;2.87;2.57;;;;;;;;;;5105893;28;20032;-67
2022/03/15 05:28:20;;;;;;;4.23;3.20;;;;;;;;;;5113535;28;20038;-67
2022/03/15 05:30:46;;;;;;;4.90;2.53;;;;;;;;;;5113282;28;20384;-66
2022/03/15 05:33:11;;;;;;;4.23;3.33;;;;;;;;;;5111509;28;20020;-67
2022/03/15 05:35:36;;;;;;;3.87;2.63;;;;;;;;;;5106744;28;20019;-66
2022/03/15 05:38:01;;;;;;;4.87;2.57;;;;;;;;;;5110323;28;20173;-67
2022/03/15 05:40:27;;;;;;;4.77;2.93;;;;;;;;;;5097869;28;20028;-67
2022/03/15 05:42:52;;;;;;;3.90;3.23;;;;;;;;;;5110398;27;20030;-66
2022/03/15 05:45:17;;;;;;;4.53;2.93;;;;;;;;;;5111439;28;20032;-67
2022/03/15 05:47:42;;;;;;;6.33;3.33;;;;;;;;;;5110184;27;20027;-67
2022/03/15 05:50:08;;;;;;;4.30;2.83;;;;;;;;;;5106839;27;20034;-66
2022/03/15 05:52:33;;;;;;;5.63;3.20;;;;;;;;;;5117855;27;20158;-67
2022/03/15 05:54:59;;;;;;;5.20;3.03;;;;;;;;;;5116961;27;20015;-65
2022/03/15 05:57:24;;;;;;;4.40;2.90;;;;;;;;;;5109241;27;20107;-67
2022/03/15 05:59:49;;;;;;;5.07;3.33;;;;;;;;;;5115273;27;20451;-66
2022/03/15 06:02:14;;;;;;;7.03;4.47;;;;;;;;;;5107348;27;20045;-67
2022/03/15 06:04:40;;;;;;;4.70;3.17;;;;;;;;;;5105342;27;20058;-68
2022/03/15 06:07:05;;;;;;;4.53;2.93;;;;;;;;;;5103322;28;20040;-64
2022/03/15 06:09:31;;;;;;;3.10;2.80;;;;;;;;;;5098181;28;20357;-67
2022/03/15 06:11:56;;;;;;;4.03;2.70;;;;;;;;;;5120525;27;20414;-66
2022/03/15 06:14:22;;;;;;;5.97;3.30;;;;;;;;;;5103985;28;20479;-67
2022/03/15 06:16:47;;;;;;;4.90;3.27;;;;;;;;;;5104840;28;20373;-66
2022/03/15 06:19:13;;;;;;;5.57;3.07;;;;;;;;;;5111287;28;20067;-67
2022/03/15 06:21:39;;;;;;;6.07;3.00;;;;;;;;;;5101152;28;20028;-66
2022/03/15 06:24:05;;;;;;;4.93;3.53;;;;;;;;;;5097666;28;20439;-67
2022/03/15 06:26:30;;;;;;;6.50;4.90;;;;;;;;;;5105346;28;20064;-67
2022/03/15 06:28:58;;;;;;;8.03;4.63;;;;;;;;;;5111734;27;20102;-66
2022/03/15 06:31:23;;;;;;;4.10;3.17;;;;;;;;;;5105627;28;20492;-65
2022/03/15 06:33:48;;;;;;;4.40;3.27;;;;;;;;;;5102797;27;20079;-68
2022/03/15 06:36:15;;;;;;;5.63;3.30;;;;;;;;;;5098989;28;20469;-68
2022/03/15 06:38:41;;;;;;;6.27;4.10;;;;;;;;;;5107546;27;20031;-68
2022/03/15 06:41:07;;;;;;;6.30;3.90;;;;;;;;;;5116247;27;20106;-67
2022/03/15 06:43:34;;;;;;;4.37;3.63;;;;;;;;;;5110009;27;20165;-68
2022/03/15 06:45:59;;;;;;;8.03;4.23;;;;;;;;;;5096834;28;20153;-67
2022/03/15 06:48:24;;;;;;;6.43;4.07;;;;;;;;;;5110418;28;20669;-66
2022/03/15 06:50:49;;;;;;;6.80;4.35;;;;;;;;;;5106934;27;20024;-67
2022/03/15 06:53:14;;;;;;;4.82;3.58;;;;;;;;;;5108995;28;20080;-68
2022/03/15 06:55:39;;;;;;;3.78;2.97;;;;;;;;;;5105370;27;20476;-67
2022/03/15 06:58:05;;;;;;;5.80;3.10;;;;;;;;;;5109906;28;20042;-67
2022/03/15 07:00:30;;;;;;;5.53;3.30;;;;;;;;;;5110636;28;20537;-69
2022/03/15 07:02:55;;;;;;;6.47;3.20;;;;;;;;;;5108591;27;20442;-67
2022/03/15 07:05:20;;;;;;;6.82;3.15;;;;;;;;;;5109696;28;20020;-68
2022/03/15 07:07:46;;;;;;;5.20;3.45;;;;;;;;;;5104854;28;20012;-67
2022/03/15 07:10:12;;;;;;;7.03;3.10;;;;;;;;;;5106248;28;20134;-67
2022/03/15 07:12:37;;;;;;;6.00;2.97;;;;;;;;;;5105165;27;20038;-68
2022/03/15 07:15:04;;;;;;;4.75;3.42;;;;;;;;;;5099931;28;20537;-68
2022/03/15 07:17:32;;;;;;;5.35;3.17;;;;;;;;;;5109344;28;20529;-67
2022/03/15 07:19:58;;;;;;;5.78;3.40;;;;;;;;;;5113750;27;20027;-65
2022/03/15 07:22:24;;;;;;;10.38;3.97;;;;;;;;;;5110585;28;20024;-66
2022/03/15 07:24:49;;;;;;;6.40;3.30;;;;;;;;;;5092742;28;20023;-67
2022/03/15 07:27:15;;;;;;;5.00;2.75;;;;;;;;;;5106643;28;20034;-67
2022/03/15 07:29:40;;;;;;;6.85;3.33;;;;;;;;;;5107606;28;20035;-67
2022/03/15 07:32:05;;;;;;;9.98;4.43;;;;;;;;;;5091621;28;20427;-65
2022/03/15 07:34:30;;;;;;;5.90;3.45;;;;;;;;;;5111783;28;20463;-67
2022/03/15 07:36:56;;;;;;;5.13;3.05;;;;;;;;;;5105812;28;20036;-67
2022/03/15 07:39:21;;;;;;;5.78;3.63;;;;;;;;;;5111979;28;20039;-67
2022/03/15 07:41:46;;;;;;;4.50;2.67;;;;;;;;;;5111675;28;20099;-67
2022/03/15 07:44:12;;;;;;;5.15;3.58;;;;;;;;;;5110637;28;20063;-67
2022/03/15 07:46:37;;;;;;;6.72;3.33;;;;;;;;;;5111248;28;20024;-66
2022/03/15 07:49:03;;;;;;;4.65;2.80;;;;;;;;;;5107798;27;20024;-67
2022/03/15 07:51:28;;;;;;;6.07;2.42;;;;;;;;;;5116006;28;20049;-67
2022/03/15 07:53:54;;;;;;;4.95;2.60;;;;;;;;;;5101441;27;20015;-67
2022/03/15 07:56:19;;;;;;;4.25;2.67;;;;;;;;;;5105157;27;20427;-66
2022/03/15 07:58:45;;;;;;;4.50;2.67;;;;;;;;;;5102041;28;20069;-67
2022/03/15 08:01:10;;;;;;;5.22;3.03;;;;;;;;;;5111211;28;20495;-66
2022/03/15 08:03:35;;;;;;;4.05;2.97;;;;;;;;;;5112006;28;20018;-66
2022/03/15 08:06:00;;;;;;;3.17;2.05;;;;;;;;;;5109021;28;20040;-67
2022/03/15 08:08:25;;;;;;;3.63;1.88;;;;;;;;;;5106298;28;20055;-67
2022/03/15 08:10:51;;;;;;;3.55;1.83;;;;;;;;;;5091866;28;20020;-67
2022/03/15 08:13:16;;;;;;;2.55;1.70;;;;;;;;;;5110109;28;20028;-68
2022/03/15 08:15:41;;;;;;;5.68;2.15;;;;;;;;;;5112167;28;20056;-67
2022/03/15 08:18:06;;;;;;;3.67;1.90;;;;;;;;;;5102404;28;20031;-69
2022/03/15 08:20:32;;;;;;;5.00;2.40;;;;;;;;;;5106321;28;20055;-67
2022/03/15 08:22:58;;;;;;;5.38;2.65;;;;;;;;;;5119652;27;20467;-67
2022/03/15 08:25:23;;;;;;;2.90;1.73;;;;;;;;;;5116598;27;20020;-67
2022/03/15 08:27:49;;;;;;;4.10;2.08;;;;;;;;;;5114531;27;20020;-66
2022/03/15 08:30:14;;;;;;;5.95;2.50;;;;;;;;;;5104783;27;20035;-67
2022/03/15 08:32:39;;;;;;;4.03;2.10;;;;;;;;;;5112846;27;20447;-67
2022/03/15 08:35:04;;;;;;;3.03;1.85;;;;;;;;;;5105015;27;20111;-67
2022/03/15 08:37:30;;;;;;;3.60;2.15;;;;;;;;;;5106572;27;20092;-69
2022/03/15 08:39:55;;;;;;;2.50;1.52;;;;;;;;;;5108736;27;20076;-67
2022/03/15 08:42:21;;;;;;;3.58;1.85;;;;;;;;;;5108144;27;20475;-66
2022/03/15 08:44:46;;;;;;;5.10;2.05;;;;;;;;;;5111756;27;20051;-67
2022/03/15 08:47:12;;;;;;;3.03;1.95;;;;;;;;;;5111654;27;20035;-67
2022/03/15 08:49:38;;;;;;;3.58;2.05;;;;;;;;;;5107836;27;20016;-67
2022/03/15 08:52:03;;;;;;;2.63;2.20;;;;;;;;;;5108649;27;20023;-67
2022/03/15 08:54:29;;;;;;;3.25;2.10;;;;;;;;;;5112803;27;20032;-67
2022/03/15 08:56:54;;;;;;;3.08;1.80;;;;;;;;;;5113922;28;20048;-67
2022/03/15 08:59:20;;;;;;;3.63;2.10;;;;;;;;;;5111100;27;20445;-66
2022/03/15 09:01:46;;;;;;;4.05;2.28;;;;;;;;;;5104214;27;20027;-66
2022/03/15 09:04:11;;;;;;;4.88;1.95;;;;;;;;;;5104963;28;20027;-67
2022/03/15 09:06:37;;;;;;;3.65;1.95;;;;;;;;;;5115334;28;20020;-67
2022/03/15 09:09:02;;;;;;;3.13;2.13;;;;;;;;;;5114557;28;20026;-67
2022/03/15 09:11:29;;;;;;;3.47;2.30;;;;;;;;;;5102927;27;20012;-66
2022/03/15 09:13:54;;;;;;;3.20;1.42;;;;;;;;;;5101140;27;20046;-67
2022/03/15 09:16:20;;;;;;;2.40;1.55;;;;;;;;;;5099193;28;20102;-67
2022/03/15 09:18:45;;;;;;;4.95;2.17;;;;;;;;;;5107767;27;20119;-66
2022/03/15 09:21:12;;;;;;;3.45;2.30;;;;;;;;;;5105828;27;22017;-67
2022/03/15 09:23:37;;;;;;;3.85;1.95;;;;;;;;;;5106151;27;20490;-66
2022/03/15 09:26:03;;;;;;;2.45;1.73;;;;;;;;;;5098901;28;20035;-66
2022/03/15 09:28:28;;;;;;;3.58;1.80;;;;;;;;;;5115143;27;20039;-65
2022/03/15 09:30:53;;;;;;;3.85;1.95;;;;;;;;;;5116989;27;20046;-67
2022/03/15 09:33:19;;;;;;;3.78;1.70;;;;;;;;;;5109681;27;20020;-65
2022/03/15 09:35:45;;;;;;;2.72;1.40;;;;;;;;;;5110508;28;20032;-66
2022/03/15 09:38:10;;;;;;;2.97;1.58;;;;;;;;;;5114210;27;20039;-66
2022/03/15 09:40:36;;;;;;;5.18;1.70;;;;;;;;;;5105070;27;20032;-67
2022/03/15 09:43:02;;;;;;;3.53;1.80;;;;;;;;;;5104504;27;20533;-66
2022/03/15 09:45:32;;;;;;;2.88;1.38;;;;;;;;;;5104537;27;20391;-67
2022/03/15 09:47:59;;;;;;;3.10;1.20;;;;;;;;;;5110582;27;20575;-66
2022/03/15 09:50:25;;;;;;;3.25;1.70;;;;;;;;;;5107888;27;20045;-66
2022/03/15 09:52:52;;;;;;;3.00;1.33;;;;;;;;;;5112293;27;20033;-66
2022/03/15 09:55:18;;;;;;;3.97;1.60;;;;;;;;;;5107515;27;20463;-66
2022/03/15 09:57:43;;;;;;;5.70;1.50;;;;;;;;;;5106699;27;20056;-67
2022/03/15 10:00:12;;;;;;;6.28;1.40;;;;;;;;;;5112330;28;20028;-66
2022/03/15 10:02:38;;;;;;;2.30;1.20;;;;;;;;;;5103886;28;20020;-66
2022/03/15 10:05:04;;;;;;;2.70;1.20;;;;;;;;;;5113218;27;20011;-67
2022/03/15 10:07:29;;;;;;;4.28;1.40;;;;;;;;;;5106419;27;20027;-65
2022/03/15 10:09:54;;;;;;;2.65;1.30;;;;;;;;;;5100674;27;20346;-67
2022/03/15 10:12:20;;;;;;;4.68;3.03;;;;;;;;;;5106537;27;20034;-65
2022/03/15 10:14:46;;;;;;;5.10;2.60;;;;;;;;;;5107388;27;20042;-64
2022/03/15 10:17:14;;;;;;;3.55;1.85;;;;;;;;;;5103182;27;20023;-66
2022/03/15 10:19:49;;;;;;;4.05;1.50;;;;;;;;;;5113112;27;20034;-66
2022/03/15 10:22:19;;;;;;;3.85;1.98;;;;;;;;;;5107478;27;20020;-67
2022/03/15 10:24:46;;;;;;;2.90;1.75;;;;;;;;;;5103887;27;21147;-67
2022/03/15 10:27:11;;;;;;;2.45;1.60;;;;;;;;;;5108496;27;20031;-67
2022/03/15 10:29:36;;;;;;;2.67;1.20;;;;;;;;;;5106789;27;20467;-68
2022/03/15 10:32:04;;;;;;;3.25;1.20;;;;;;;;;;5107125;27;20038;-68
2022/03/15 10:34:29;;;;;;;5.25;1.40;;;;;;;;;;5105542;27;20019;-66
2022/03/15 10:36:56;;;;;;;1.80;1.27;;;;;;;;;;5106403;27;20046;-68
2022/03/15 10:39:22;;;;;;;3.65;1.70;;;;;;;;;;5110622;27;20069;-67
2022/03/15 10:41:49;;;;;;;2.60;1.40;;;;;;;;;;5110781;28;20425;-68
2022/03/15 10:44:20;;;;;;;2.70;0.90;;;;;;;;;;5100617;28;20107;-68
2022/03/15 10:46:59;;;;;;;2.55;1.40;;;;;;;;;;5110447;28;20015;-68
2022/03/15 10:49:25;;;;;;;4.18;1.80;;;;;;;;;;5109540;28;20016;-68
2022/03/15 10:51:50;;;;;;;2.25;1.67;;;;;;;;;;5110459;27;20369;-69
2022/03/15 10:54:15;;;;;;;2.10;1.60;;;;;;;;;;5109931;27;20027;-68
2022/03/15 10:56:41;;;;;;;3.25;1.80;;;;;;;;;;5107973;28;20048;-68
2022/03/15 10:59:06;;;;;;;3.97;1.60;;;;;;;;;;5103826;27;20542;-68
2022/03/15 11:01:38;;;;;;;2.53;1.60;;;;;;;;;;5103420;28;20027;-69
2022/03/15 11:04:04;;;;;;;3.33;2.13;;;;;;;;;;5108724;28;20011;-67
2022/03/15 11:06:30;;;;;;;2.08;1.38;;;;;;;;;;5095333;27;20047;-68
2022/03/15 11:08:56;;;;;;;2.67;1.60;;;;;;;;;;5106690;27;20012;-68
2022/03/15 11:11:25;;;;;;;2.50;1.60;;;;;;;;;;5109066;28;20106;-68
2022/03/15 11:13:50;;;;;;;3.03;1.45;;;;;;;;;;5106886;27;20044;-68
2022/03/15 11:16:17;;;;;;;3.25;1.73;;;;;;;;;;5106706;28;20629;-68
2022/03/15 11:18:42;;;;;;;2.58;1.90;;;;;;;;;;5099941;28;20368;-69
2022/03/15 11:21:07;;;;;;;3.30;1.55;;;;;;;;;;5110092;27;20096;-68
2022/03/15 11:23:38;;;;;;;2.70;1.42;;;;;;;;;;5105286;27;20047;-69
2022/03/15 11:26:05;;;;;;;2.97;1.42;;;;;;;;;;5099876;27;20023;-69
2022/03/15 11:28:32;;;;;;;3.85;1.70;;;;;;;;;;5104728;28;20028;-69
2022/03/15 11:30:58;;;;;;;2.40;1.23;;;;;;;;;;5100372;27;20332;-67
2022/03/15 11:33:24;;;;;;;3.00;1.80;;;;;;;;;;5105183;27;20020;-69
2022/03/15 11:35:50;;;;;;;3.63;1.80;;;;;;;;;;5108541;28;20042;-68
2022/03/15 11:38:15;;;;;;;2.30;1.52;;;;;;;;;;5095845;28;20506;-68
2022/03/15 11:40:43;;;;;;;2.33;1.63;;;;;;;;;;5106748;27;20025;-68
2022/03/15 11:43:09;;;;;;;2.17;1.98;;;;;;;;;;5108112;28;20023;-64
2022/03/15 11:46:07;;;;;;;2.67;1.75;;;;;;;;;;5109319;28;20527;-67
2022/03/15 11:48:32;;;;;;;3.08;1.67;;;;;;;;;;5068932;28;20110;-68
2022/03/15 11:51:08;;;;;;;2.77;1.57;;;;;;;;;;5109995;28;20153;-68
2022/03/15 11:53:42;;;;;;;3.58;1.52;;;;;;;;;;5103081;28;20322;-66
2022/03/15 11:56:46;;;;;;;3.03;1.90;;;;;;;;;;5101252;28;20043;-67
2022/03/15 11:59:11;;;;;;;2.63;1.90;;;;;;;;;;5021508;28;20033;-68
2022/03/15 12:01:47;;;;;;;3.65;1.58;;;;;;;;;;5018674;28;20308;-68
2022/03/15 12:04:13;;;;;;;3.55;1.77;;;;;;;;;;5018853;28;20494;-67
2022/03/15 12:06:47;;;;;;;3.70;1.65;;;;;;;;;;5025365;28;20060;-66
2022/03/15 12:09:13;;;;;;;1.95;1.30;;;;;;;;;;5028498;28;20037;-67
2022/03/15 12:11:39;;;;;;;4.13;1.90;;;;;;;;;;5027161;28;20029;-68
2022/03/15 12:14:05;;;;;;;2.42;1.55;;;;;;;;;;5030147;28;20103;-68
2022/03/15 12:16:34;;;;;;;3.70;1.60;;;;;;;;;;5013406;28;20041;-66
2022/03/15 12:19:10;;;;;;;3.80;1.58;;;;;;;;;;5019109;28;20026;-68
2022/03/15 12:21:54;;;;;;;2.72;1.52;;;;;;;;;;5019145;28;20060;-70
2022/03/15 12:24:30;;;;;;;1.83;1.58;;;;;;;;;;5020960;28;20042;-63
2022/03/15 12:27:16;;;;;;;3.85;1.70;;;;;;;;;;5013123;28;20074;-70
2022/03/15 12:29:41;;;;;;;;;;;;;;;;;;5061434;28;20107;-64
2022/03/15 12:32:11;;;;;;;2.85;1.70;;;;;;;;;;5107042;28;20006;-64
2022/03/15 12:34:36;;;;;;;4.00;1.60;;;;;;;;;;5111996;27;20099;-69
2022/03/15 12:37:01;;;;;;;3.42;1.58;;;;;;;;;;5112447;28;20107;-66
2022/03/15 12:39:31;;;;;;;3.85;1.60;;;;;;;;;;5108187;28;20028;-66
2022/03/15 12:42:03;;;;;;;4.78;2.25;;;;;;;;;;5110486;27;20114;-67
2022/03/15 12:44:41;;;;;;;3.63;2.25;;;;;;;;;;5102393;27;20016;-71
2022/03/15 12:47:06;;;;;;;3.00;1.77;;;;;;;;;;5105817;27;20510;-68
2022/03/15 12:49:32;;;;;;;3.38;1.50;;;;;;;;;;5107729;28;20031;-68
2022/03/15 12:52:08;;;;;;;4.30;2.15;;;;;;;;;;5108498;27;20196;-67
2022/03/15 12:54:33;;;;;;;3.88;2.03;;;;;;;;;;5103838;27;20151;-67
2022/03/15 12:57:06;;;;;;;2.42;1.65;;;;;;;;;;5110434;28;20076;-68
2022/03/15 12:59:31;;;;;;;3.80;2.08;;;;;;;;;;5107217;27;20396;-67
2022/03/15 13:01:58;;;;;;;3.63;2.17;;;;;;;;;;5112717;27;20050;-67
2022/03/15 13:04:23;;;;;;;4.75;1.98;;;;;;;;;;5110482;28;20054;-67
2022/03/15 13:06:49;;;;;;;3.53;2.13;;;;;;;;;;5119642;27;20059;-68
2022/03/15 13:09:33;;;;;;;5.70;2.38;;;;;;;;;;5105560;28;20274;-66
2022/03/15 13:11:59;;;;;;;4.28;2.47;;;;;;;;;;5097582;28;20094;-68
2022/03/15 13:14:26;;;;;;;4.55;2.72;;;;;;;;;;5105857;28;20111;-69
2022/03/15 13:16:52;;;;;;;3.45;2.55;;;;;;;;;;5094177;28;20052;-72
2022/03/15 13:19:31;;;;;;;4.85;2.92;;;;;;;;;;5110435;27;20058;-70
2022/03/15 13:21:57;;;;;;;4.75;2.78;;;;;;;;;;5119222;27;20035;-72
2022/03/15 13:24:28;;;;;;;5.55;2.58;;;;;;;;;;5108050;27;20034;-70
2022/03/15 13:26:57;;;;;;;6.05;2.88;;;;;;;;;;5112582;28;20015;-72
2022/03/15 13:29:24;;;;;;;5.40;3.28;;;;;;;;;;5110228;27;20027;-72
2022/03/15 13:31:49;;;;;;;4.10;3.00;;;;;;;;;;5104740;27;20019;-71
2022/03/15 13:34:20;;;;;;;5.47;3.03;;;;;;;;;;5112984;27;20012;-71
2022/03/15 13:36:45;;;;;;;4.93;2.58;;;;;;;;;;5113976;28;20023;-71
2022/03/15 13:39:11;;;;;;;6.07;2.80;;;;;;;;;;5094464;27;20024;-70
2022/03/15 13:41:44;;;;;;;6.20;2.90;;;;;;;;;;5105617;28;20028;-70
2022/03/15 13:44:15;;;;;;;3.70;2.75;;;;;;;;;;5110863;28;20463;-70
2022/03/15 13:46:41;;;;;;;5.28;2.53;;;;;;;;;;5112274;28;20031;-70
2022/03/15 13:49:06;;;;;;;7.03;2.60;;;;;;;;;;5112543;27;20028;-70
2022/03/15 13:51:35;;;;;;;4.15;2.38;;;;;;;;;;5112002;28;20019;-70
2022/03/15 13:54:27;;;;;;;4.70;2.70;;;;;;;;;;5104332;28;20038;-71
2022/03/15 13:56:54;;;;;;;5.78;3.05;;;;;;;;;;5098270;28;20043;-71
2022/03/15 13:59:23;;;;;;;4.13;2.40;;;;;;;;;;5104338;28;20023;-70
2022/03/15 14:01:56;;;;;;;7.15;3.03;;;;;;;;;;5105036;27;20019;-69
2022/03/15 14:04:25;;;;;;;6.53;3.17;;;;;;;;;;5099967;28;20150;-70
2022/03/15 14:06:50;;;;;;;6.45;2.90;;;;;;;;;;5101517;28;20020;-70
2022/03/15 14:09:23;;;;;;;4.75;3.55;;;;;;;;;;5101866;28;20023;-71
2022/03/15 14:11:48;;;;;;;4.65;3.00;;;;;;;;;;5102067;28;20467;-71
2022/03/15 14:14:21;;;;;;;4.97;2.60;;;;;;;;;;5113131;28;20020;-71
2022/03/15 14:16:52;;;;;;;5.72;2.30;;;;;;;;;;5111857;28;20030;-72
2022/03/15 14:19:19;;;;;;;5.20;2.60;;;;;;;;;;5110947;28;20050;-71
2022/03/15 14:21:50;;;;;;;3.22;2.17;;;;;;;;;;5109564;28;20024;-71
2022/03/15 14:24:21;;;;;;;4.55;2.22;;;;;;;;;;5111719;28;20407;-71
2022/03/15 14:26:47;;;;;;;4.72;2.58;;;;;;;;;;5109145;28;20027;-71
2022/03/15 14:29:15;;;;;;;7.82;3.33;;;;;;;;;;5112227;27;20011;-71
2022/03/15 14:31:43;;;;;;;4.78;2.80;;;;;;;;;;5109552;27;20016;-70
2022/03/15 14:34:10;;;;;;;6.55;2.40;;;;;;;;;;5112218;27;20031;-69
2022/03/15 14:36:36;;;;;;;6.78;2.58;;;;;;;;;;5112005;27;20019;-64
2022/03/15 14:39:10;;;;;;;4.65;2.33;;;;;;;;;;5097179;28;20375;-66